Time;durP1;ratioP1;P1;durP2;ratioP2;P2;SDS_P1;SDS_P2;PMS_P1;PMS_P2;Temp;Humidity;BMP_temperature;BMP_pressure;BME280_temperature;BME280_humidity;BME280_pressure;Samples;Min_cycle;Max_cycle;Signal;HPM_P1;HPM_P2
2022/09/05 00:06:21;;;;;;;3.37;2.10;;;;;;;15.29;100.00;98128.50;18496482;32;20434;-61
2022/09/05 00:16:29;;;;;;;3.47;2.20;;;;;;;15.21;100.00;98122.59;18489246;32;20049;-61
2022/09/05 00:26:51;;;;;;;1.95;1.48;;;;;;;15.15;100.00;98107.41;18502062;32;20412;-61
2022/09/05 00:36:54;;;;;;;2.45;2.22;;;;;;;15.08;100.00;98105.00;18487416;32;20069;-62
2022/09/05 00:47:15;;;;;;;3.22;2.10;;;;;;;15.00;100.00;98092.03;18473937;32;20049;-61
2022/09/05 00:57:55;;;;;;;3.03;2.42;;;;;;;14.87;100.00;98098.97;18362217;32;20077;-62
2022/09/05 01:08:05;;;;;;;2.90;2.53;;;;;;;14.81;100.00;98107.47;18361443;32;20469;-62
2022/09/05 01:18:14;;;;;;;2.87;1.95;;;;;;;14.71;100.00;98105.69;18361021;32;20148;-61
2022/09/05 01:28:30;;;;;;;2.12;1.87;;;;;;;14.62;100.00;98102.75;18424574;32;20065;-61
2022/09/05 01:39:04;;;;;;;3.22;1.80;;;;;;;14.55;100.00;98108.50;18433029;32;20387;-61
2022/09/05 01:49:36;;;;;;;2.62;1.45;;;;;;;14.49;100.00;98104.19;18434250;32;20058;-62
2022/09/05 01:59:54;;;;;;;2.67;2.08;;;;;;;14.42;100.00;98098.28;18496752;32;20389;-61
2022/09/05 02:10:15;;;;;;;2.33;1.90;;;;;;;14.36;100.00;98102.94;18496139;32;20136;-61
2022/09/05 02:20:26;;;;;;;2.12;1.92;;;;;;;14.20;100.00;98102.25;18496033;32;20041;-61
2022/09/05 02:30:36;;;;;;;3.30;1.90;;;;;;;14.10;100.00;98099.59;18489322;32;20087;-61
2022/09/05 02:41:07;;;;;;;2.12;1.92;;;;;;;14.03;100.00;98090.94;18483511;32;20090;-62
2022/09/05 02:51:38;;;;;;;3.33;2.00;;;;;;;13.99;100.00;98084.44;18293420;32;20067;-61
2022/09/05 03:02:09;;;;;;;2.80;1.83;;;;;;;13.93;100.00;98082.84;18280200;32;20077;-61
2022/09/05 03:13:01;;;;;;;5.32;2.17;;;;;;;13.83;100.00;98081.00;18293274;32;20084;-61
2022/09/05 03:24:03;;;;;;;5.47;2.25;;;;;;;13.78;100.00;98081.84;18315414;32;20072;-61
2022/09/05 03:34:48;;;;;;;2.78;1.90;;;;;;;13.75;100.00;98082.41;18240763;32;20077;-61
2022/09/05 03:45:15;;;;;;;2.45;2.05;;;;;;;13.73;100.00;98087.28;18229095;32;20074;-61
2022/09/05 03:56:09;;;;;;;4.18;2.10;;;;;;;13.73;100.00;98098.16;18238932;32;20472;-61
2022/09/05 04:06:41;;;;;;;3.45;2.10;;;;;;;13.69;100.00;98099.81;18217150;32;20077;-61
2022/09/05 04:17:17;;;;;;;2.15;1.95;;;;;;;13.64;100.00;98105.31;18301059;32;20508;-61
2022/09/05 04:27:20;;;;;;;2.95;2.30;;;;;;;13.59;100.00;98103.41;18301146;32;20515;-61
2022/09/05 04:37:35;;;;;;;5.40;2.17;;;;;;;13.55;100.00;98116.75;18304016;32;20109;-61
2022/09/05 04:47:54;;;;;;;3.47;1.90;;;;;;;13.56;100.00;98125.72;18372695;32;20058;-60
2022/09/05 04:58:05;;;;;;;3.67;2.55;;;;;;;13.53;100.00;98137.12;18483324;32;20049;-61
2022/09/05 05:08:18;;;;;;;2.62;2.22;;;;;;;13.54;100.00;98136.84;18485921;32;20072;-61
2022/09/05 05:18:50;;;;;;;4.30;2.10;;;;;;;13.47;100.00;98154.53;18498967;32;20079;-61
2022/09/05 05:29:17;;;;;;;2.35;2.00;;;;;;;13.48;100.00;98175.97;18498571;32;20049;-61
2022/09/05 05:39:28;;;;;;;2.17;1.92;;;;;;;13.54;100.00;98180.31;18497835;32;20057;-60
2022/09/05 05:49:59;;;;;;;2.60;2.08;;;;;;;13.55;100.00;98197.44;18482296;32;20071;-61
2022/09/05 06:00:39;;;;;;;4.28;2.10;;;;;;;13.65;100.00;98204.72;18496616;32;20100;-60
2022/09/05 06:11:18;;;;;;;2.47;2.17;;;;;;;13.87;100.00;98212.56;18496042;32;20090;-61
2022/09/05 06:22:15;;;;;;;2.75;2.00;;;;;;;14.00;100.00;98211.13;18495855;32;20075;-61
2022/09/05 06:32:55;;;;;;;3.47;2.50;;;;;;;14.09;100.00;98209.47;18495674;32;20056;-61
2022/09/05 06:43:03;;;;;;;2.28;1.90;;;;;;;14.23;100.00;98225.97;18495536;32;20092;-60
2022/09/05 06:54:06;;;;;;;2.70;2.30;;;;;;;14.40;100.00;98231.03;18494910;32;20091;-61
2022/09/05 07:04:27;;;;;;;3.00;2.53;;;;;;;14.69;100.00;98230.34;18504268;32;20344;-61
2022/09/05 07:15:16;;;;;;;2.83;2.30;;;;;;;15.14;100.00;98250.13;18506846;32;20076;-61
2022/09/05 07:25:28;;;;;;;5.50;3.00;;;;;;;15.61;100.00;98244.25;18240870;32;20587;-61
2022/09/05 07:35:38;;;;;;;2.70;2.50;;;;;;;15.88;100.00;98250.00;18240650;32;20101;-62
2022/09/05 07:46:15;;;;;;;;;;;;;;;;;;;;;
2022/09/05 07:57:03;;;;;;;3.55;3.00;;;;;;;16.77;100.00;98297.69;18296581;32;20442;-62
2022/09/05 08:07:36;;;;;;;6.57;4.10;;;;;;;17.26;100.00;98317.44;18438914;32;20061;-62
2022/09/05 08:18:33;;;;;;;4.28;3.20;;;;;;;17.42;100.00;98320.75;18436465;32;20369;-62
2022/09/05 08:29:24;;;;;;;3.95;2.92;;;;;;;17.37;100.00;98347.37;18436329;32;20103;-62
2022/09/05 08:40:38;;;;;;;;;;;;;;;;;;;;;
2022/09/05 08:51:54;;;;;;;3.67;2.10;;;;;;;17.11;100.00;98325.91;18447909;32;20053;-62
2022/09/05 09:02:48;;;;;;;2.42;2.20;;;;;;;17.27;100.00;98319.06;18500192;32;20119;-62
2022/09/05 09:13:50;;;;;;;3.72;2.70;;;;;;;18.03;100.00;98307.09;18498901;32;20061;-62
2022/09/05 09:24:13;;;;;;;4.55;2.50;;;;;;;19.02;100.00;98286.69;18499063;32;20057;-62
2022/09/05 09:34:30;;;;;;;2.70;2.15;;;;;;;19.56;100.00;98273.03;18471628;32;20052;-62
2022/09/05 09:45:40;;;;;;;;;;;;;;;;;;;;;
2022/09/05 09:56:50;;;;;;;3.78;2.55;;;;;;;20.28;100.00;98235.34;18295036;32;20054;-62
2022/09/05 10:07:26;;;;;;;4.00;2.90;;;;;;;20.80;100.00;98226.38;18295074;32;20078;-61
2022/09/05 10:18:12;;;;;;;4.87;3.22;;;;;;;21.17;100.00;98218.56;18294707;32;20070;-62
2022/09/05 10:28:21;;;;;;;;;;;;;;;21.53;100.00;98219.31;18340627;32;20045;-62
2022/09/05 10:38:43;;;;;;;6.22;3.42;;;;;;;21.88;100.00;98219.16;18440621;32;19949;-62
2022/09/05 10:48:58;;;;;;;7.07;3.60;;;;;;;22.00;93.29;98208.25;18443909;32;20479;-62
2022/09/05 10:59:12;;;;;;;3.28;2.25;;;;;;;21.90;97.88;98201.19;18441665;32;20113;-63
2022/09/05 11:10:30;;;;;;;3.47;2.67;;;;;;;22.63;93.31;98186.28;18440872;32;20049;-63
2022/09/05 11:20:49;;;;;;;3.40;2.85;;;;;;;23.05;86.46;98184.59;18442059;32;20058;-62
2022/09/05 11:31:57;;;;;;;;;;;;;;;;;;;;;
2022/09/05 11:42:32;;;;;;;4.25;2.53;;;;;;;24.02;84.77;98154.72;18440422;32;20438;-62
2022/09/05 11:53:05;;;;;;;;;;;;;;;;;;;;;
2022/09/05 12:04:13;;;;;;;3.03;2.33;;;;;;;24.76;68.18;98134.37;18503816;32;20380;-63
2022/09/05 12:14:33;;;;;;;3.92;2.03;;;;;;;25.34;80.51;98129.22;18488906;32;20053;-63
2022/09/05 12:25:23;;;;;;;2.45;2.03;;;;;;;25.66;76.27;98115.34;18491358;32;20096;-63
2022/09/05 12:36:34;;;;;;;2.62;2.00;;;;;;;26.26;72.85;98111.56;18501592;32;20049;-63
2022/09/05 12:47:12;;;;;;;2.85;1.80;;;;;;;26.67;72.06;98106.44;18501309;32;20083;-63
2022/09/05 12:57:27;;;;;;;2.70;1.77;;;;;;;26.85;58.55;98083.81;18499962;32;20457;-63
2022/09/05 13:07:57;;;;;;;3.30;1.40;;;;;;;27.52;67.06;98090.91;18500087;32;20334;-63
2022/09/05 13:18:36;;;;;;;1.73;1.40;;;;;;;27.91;55.86;98068.44;18499459;32;20061;-63
2022/09/05 13:29:10;;;;;;;3.20;2.08;;;;;;;28.45;63.38;98060.00;18233203;32;20481;-63
2022/09/05 13:39:27;;;;;;;2.10;1.50;;;;;;;28.91;60.08;98048.59;18209035;32;20070;-63
2022/09/05 13:50:28;;;;;;;1.37;1.10;;;;;;;28.94;57.79;98047.81;18232371;32;20514;-63
2022/09/05 14:00:40;;;;;;;4.65;1.48;;;;;;;29.19;49.93;98038.88;18349940;32;20076;-62
2022/09/05 14:11:02;;;;;;;1.87;1.65;;;;;;;29.50;48.05;98028.41;18495812;32;20112;-62
2022/09/05 14:21:16;;;;;;;2.12;1.62;;;;;;;29.57;53.71;98011.72;18489405;32;20041;-63
2022/09/05 14:31:50;;;;;;;4.32;1.77;;;;;;;28.72;51.32;98008.69;18482515;32;20097;-62
2022/09/05 14:42:25;;;;;;;1.65;1.40;;;;;;;28.62;48.89;97981.50;18495170;32;20053;-63
2022/09/05 14:53:21;;;;;;;5.10;2.00;;;;;;;28.25;54.41;97974.00;18494540;32;20457;-62
2022/09/05 15:03:50;;;;;;;4.12;2.08;;;;;;;27.72;50.89;97961.84;18494499;32;20102;-63
2022/09/05 15:14:19;;;;;;;2.80;1.90;;;;;;;27.33;49.89;97942.63;18462971;32;20057;-62
2022/09/05 15:24:29;;;;;;;3.95;1.60;;;;;;;27.01;55.24;97934.66;18502752;32;20045;-62
2022/09/05 15:34:32;;;;;;;3.75;2.05;;;;;;;26.95;56.36;97927.00;18505821;32;20431;-62
2022/09/05 15:44:39;;;;;;;3.03;1.58;;;;;;;26.52;53.98;97916.00;18491777;32;20048;-62
2022/09/05 15:55:12;;;;;;;5.62;1.80;;;;;;;26.06;57.96;97893.81;18489838;32;20057;-63
2022/09/05 16:05:20;;;;;;;2.03;1.55;;;;;;;25.75;59.53;97890.84;18504021;32;20361;-63
2022/09/05 16:15:46;;;;;;;2.03;1.73;;;;;;;25.38;61.40;97888.50;18503803;32;20076;-63
2022/09/05 16:26:17;;;;;;;2.65;1.65;;;;;;;25.14;58.58;97875.69;18502801;32;20053;-62
2022/09/05 16:36:52;;;;;;;2.35;1.90;;;;;;;24.89;62.16;97864.06;18488056;32;20072;-63
2022/09/05 16:47:32;;;;;;;2.65;1.90;;;;;;;24.52;66.30;97870.69;18478419;32;20053;-63
2022/09/05 16:57:55;;;;;;;2.85;2.00;;;;;;;24.21;64.29;97874.25;18362736;32;20077;-62
2022/09/05 17:08:06;;;;;;;4.85;2.03;;;;;;;23.95;67.97;97870.84;18362299;32;20057;-63
2022/09/05 17:18:19;;;;;;;5.00;2.20;;;;;;;23.40;72.49;97861.41;18361537;32;20609;-63
2022/09/05 17:28:52;;;;;;;4.87;2.00;;;;;;;22.99;75.35;97853.88;18369246;32;20144;-63
2022/09/05 17:39:39;;;;;;;3.72;2.15;;;;;;;22.57;77.52;97845.91;18232794;32;20101;-63
2022/09/05 17:49:47;;;;;;;2.40;2.03;;;;;;;22.18;79.03;97840.69;18232451;32;20070;-63
2022/09/05 17:59:50;;;;;;;3.05;2.10;;;;;;;21.80;79.61;97838.22;18219723;32;20240;-62
2022/09/05 18:09:57;;;;;;;2.37;1.95;;;;;;;21.48;79.12;97859.87;18269113;32;20087;-63
2022/09/05 18:20:57;;;;;;;3.62;1.90;;;;;;;21.18;82.06;97862.69;18367789;32;20062;-62
2022/09/05 18:31:39;;;;;;;2.97;2.20;;;;;;;20.89;83.91;97856.12;18220753;32;20085;-62
2022/09/05 18:41:45;;;;;;;5.55;2.37;;;;;;;20.64;86.35;97861.41;18230754;32;20082;-62
2022/09/05 18:51:59;;;;;;;4.20;2.20;;;;;;;20.41;88.43;97873.81;18217418;32;20428;-63
2022/09/05 19:02:14;;;;;;;2.92;2.40;;;;;;;20.21;89.88;97892.59;18301928;32;20106;-62
2022/09/05 19:12:43;;;;;;;2.85;2.22;;;;;;;19.96;91.49;97878.62;18378974;32;20050;-62
2022/09/05 19:23:04;;;;;;;3.90;2.37;;;;;;;19.77;92.96;97889.13;18376991;32;20058;-63
2022/09/05 19:33:24;;;;;;;3.12;2.30;;;;;;;19.56;94.33;97878.84;18377529;32;20045;-62
2022/09/05 19:44:05;;;;;;;6.03;3.85;;;;;;;19.38;95.90;97888.22;18376404;32;20073;-62
2022/09/05 19:54:29;;;;;;;9.43;6.68;;;;;;;19.20;97.02;97896.44;18440732;32;20053;-62
2022/09/05 20:04:43;;;;;;;8.43;5.95;;;;;;;19.04;97.98;97900.78;18502820;32;20061;-63
2022/09/05 20:14:46;;;;;;;8.32;5.32;;;;;;;18.93;99.03;97897.53;18489109;32;20058;-63
2022/09/05 20:24:49;;;;;;;4.80;3.93;;;;;;;18.85;99.84;97903.75;18502864;32;20056;-63
2022/09/05 20:34:52;;;;;;;4.70;3.30;;;;;;;18.71;99.93;97901.16;18495551;32;20093;-62
2022/09/05 20:45:53;;;;;;;4.40;3.07;;;;;;;18.58;100.00;97906.44;18490066;32;20061;-63
2022/09/05 20:56:26;;;;;;;3.85;2.40;;;;;;;18.44;100.00;97911.19;18192664;32;20058;-62
2022/09/05 21:06:34;;;;;;;3.00;2.28;;;;;;;18.28;100.00;97906.13;18149283;32;20079;-63
2022/09/05 21:16:44;;;;;;;3.72;2.58;;;;;;;18.18;100.00;97916.53;18172099;32;20530;-62
2022/09/05 21:26:48;;;;;;;4.20;2.95;;;;;;;18.04;100.00;97905.69;18226420;32;20065;-62
2022/09/05 21:36:51;;;;;;;3.75;2.72;;;;;;;17.97;100.00;97905.34;18356221;32;20107;-63
2022/09/05 21:47:14;;;;;;;4.00;2.85;;;;;;;17.86;100.00;97908.28;18359803;32;20085;-63
2022/09/05 21:57:37;;;;;;;4.22;2.60;;;;;;;17.78;100.00;97896.16;18411611;32;20135;-62
2022/09/05 22:08:00;;;;;;;2.97;2.30;;;;;;;17.70;100.00;97885.97;18423104;32;20073;-62
2022/09/05 22:18:02;;;;;;;2.92;2.30;;;;;;;17.64;100.00;97889.13;18411745;32;20079;-62
2022/09/05 22:28:23;;;;;;;3.03;2.15;;;;;;;17.54;100.00;97887.47;18430755;32;20106;-62
2022/09/05 22:38:42;;;;;;;3.05;2.47;;;;;;;17.50;100.00;97883.72;18430877;32;20076;-62
2022/09/05 22:48:44;;;;;;;2.92;2.10;;;;;;;17.42;100.00;97880.63;18430853;32;20066;-63
2022/09/05 22:58:46;;;;;;;3.35;2.20;;;;;;;17.32;100.00;97888.25;18416891;32;20053;-62
2022/09/05 23:08:49;;;;;;;2.50;2.03;;;;;;;17.25;100.00;97888.69;18230037;32;20109;-62
2022/09/05 23:18:52;;;;;;;3.45;2.25;;;;;;;17.23;100.00;97880.81;18217010;32;20059;-63
2022/09/05 23:28:54;;;;;;;4.85;2.10;;;;;;;17.11;100.00;97883.25;18229530;32;20075;-62
2022/09/05 23:38:57;;;;;;;9.93;2.33;;;;;;;17.03;100.00;97884.00;18387666;32;20489;-62
2022/09/05 23:48:59;;;;;;;5.47;2.33;;;;;;;16.93;100.00;97894.03;18426671;32;20396;-62
2022/09/05 23:59:02;;;;;;;2.95;2.40;;;;;;;16.88;100.00;97896.84;18239295;32;20145;-62
